createdAt,value
2019-02-19T00:00:11.739Z,78.30
2019-02-19T00:02:40.622Z,78.40
2019-02-19T00:05:09.499Z,78.60
2019-02-19T00:07:38.294Z,78.80
2019-02-19T00:10:08.667Z,78.90
2019-02-19T00:12:39.077Z,79.10
2019-02-19T00:15:08.653Z,78.90
2019-02-19T00:17:37.762Z,78.80
2019-02-19T00:20:06.908Z,78.80
2019-02-19T00:22:35.726Z,78.50
2019-02-19T00:25:05.678Z,78.30
2019-02-19T00:27:34.474Z,78.30
2019-02-19T00:30:03.662Z,78.30
2019-02-19T00:32:33.450Z,78.30
2019-02-19T00:35:02.219Z,78.20
2019-02-19T00:37:31.890Z,78.30
2019-02-19T00:40:00.724Z,78.30
2019-02-19T00:42:29.569Z,78.20
2019-02-19T00:44:58.888Z,78.40
2019-02-19T00:47:28.531Z,78.50
2019-02-19T00:49:57.337Z,78.60
2019-02-19T00:52:26.247Z,79.30
2019-02-19T00:54:55.309Z,78.80
2019-02-19T00:57:24.101Z,78.80
2019-02-19T00:59:52.885Z,78.80
2019-02-19T01:02:22.828Z,78.90
2019-02-19T01:04:53.502Z,79.00
2019-02-19T01:07:23.952Z,79.00
2019-02-19T01:09:52.719Z,79.00
2019-02-19T01:12:21.495Z,78.90
2019-02-19T01:14:50.288Z,79.00
2019-02-19T01:17:19.372Z,79.00
2019-02-19T01:19:48.502Z,79.00
2019-02-19T01:22:17.276Z,79.10
2019-02-19T01:24:46.079Z,79.10
2019-02-19T01:27:14.987Z,79.10
2019-02-19T01:29:44.600Z,79.20
2019-02-19T01:32:13.473Z,79.00
2019-02-19T01:34:42.352Z,79.00
2019-02-19T01:37:11.466Z,79.00
2019-02-19T01:39:40.335Z,79.00
2019-02-19T01:42:09.189Z,79.00
2019-02-19T01:44:38.088Z,79.10
2019-02-19T01:47:07.157Z,79.50
2019-02-19T01:49:36.140Z,79.40
2019-02-19T01:52:04.903Z,80.00
2019-02-19T01:54:35.340Z,79.30
2019-02-19T01:57:04.118Z,79.30
2019-02-19T01:59:32.916Z,79.00
2019-02-19T02:02:01.681Z,79.00
2019-02-19T02:04:30.494Z,79.10
2019-02-19T02:06:59.402Z,79.20
2019-02-19T02:09:29.335Z,79.20
2019-02-19T02:11:58.100Z,79.30
2019-02-19T02:14:26.892Z,79.30
2019-02-19T02:16:55.661Z,79.40
2019-02-19T02:19:24.989Z,79.40
2019-02-19T02:21:53.793Z,79.40
2019-02-19T02:24:22.914Z,79.40
2019-02-19T02:26:53.457Z,79.70
2019-02-19T02:29:22.456Z,79.90
2019-02-19T02:31:51.316Z,80.00
2019-02-19T02:34:20.154Z,80.00
2019-02-19T02:36:49.009Z,80.20
2019-02-19T02:39:17.864Z,80.30
2019-02-19T02:41:46.726Z,80.30
2019-02-19T02:44:15.576Z,80.40
2019-02-19T02:46:44.427Z,81.10
2019-02-19T02:49:13.257Z,80.50
2019-02-19T02:51:42.057Z,80.50
2019-02-19T02:54:10.939Z,80.60
2019-02-19T02:56:39.878Z,81.20
2019-02-19T02:59:08.640Z,81.70
2019-02-19T03:01:37.437Z,81.90
2019-02-19T03:04:06.264Z,81.40
2019-02-19T03:06:39.555Z,81.00
2019-02-19T03:09:08.352Z,82.20
2019-02-19T03:11:37.218Z,82.30
2019-02-19T03:14:05.999Z,82.70
2019-02-19T03:16:34.780Z,81.90
2019-02-19T03:19:03.564Z,80.80
2019-02-19T03:21:32.889Z,80.60
2019-02-19T03:24:01.644Z,81.90
2019-02-19T03:26:30.410Z,82.20
2019-02-19T03:28:59.211Z,81.50
2019-02-19T03:31:28.030Z,80.20
2019-02-19T03:33:56.895Z,79.20
2019-02-19T03:36:25.676Z,78.50
2019-02-19T03:38:54.555Z,77.80
2019-02-19T03:41:23.386Z,77.20
2019-02-19T03:43:52.162Z,76.60
2019-02-19T03:46:20.984Z,76.30
2019-02-19T03:48:49.812Z,76.10
2019-02-19T03:51:18.561Z,76.40
2019-02-19T03:53:47.373Z,76.60
2019-02-19T03:56:16.215Z,77.20
2019-02-19T03:58:45.019Z,76.90
2019-02-19T04:01:13.791Z,78.20
2019-02-19T04:03:42.564Z,79.00
2019-02-19T04:06:11.335Z,79.90
2019-02-19T04:08:40.146Z,80.20
2019-02-19T04:11:08.912Z,80.20
2019-02-19T04:13:37.718Z,79.80
2019-02-19T04:16:06.478Z,79.10
2019-02-19T04:18:35.300Z,78.60
2019-02-19T04:21:04.228Z,78.50
2019-02-19T04:23:33.022Z,78.80
2019-02-19T04:26:01.814Z,79.20
2019-02-19T04:28:30.607Z,79.80
2019-02-19T04:30:59.395Z,80.10
2019-02-19T04:33:28.171Z,80.40
2019-02-19T04:35:56.973Z,80.60
2019-02-19T04:38:25.855Z,80.70
2019-02-19T04:40:54.646Z,80.70
2019-02-19T04:43:23.433Z,80.80
2019-02-19T04:45:52.463Z,80.90
2019-02-19T04:48:21.248Z,81.10
2019-02-19T04:50:50.063Z,81.40
2019-02-19T04:53:18.807Z,81.50
2019-02-19T04:55:47.632Z,81.50
2019-02-19T04:58:16.424Z,81.60
2019-02-19T05:00:45.233Z,81.70
2019-02-19T05:03:13.995Z,82.00
2019-02-19T05:05:42.812Z,82.00
2019-02-19T05:08:11.577Z,82.20
2019-02-19T05:10:40.392Z,82.50
2019-02-19T05:13:09.265Z,82.90
2019-02-19T05:15:38.042Z,83.50
2019-02-19T05:18:06.823Z,84.10
2019-02-19T05:20:35.777Z,84.60
2019-02-19T05:23:04.614Z,85.10
2019-02-19T05:25:33.427Z,85.30
2019-02-19T05:28:02.227Z,85.80
2019-02-19T05:30:31.052Z,86.00
2019-02-19T05:32:59.820Z,86.30
2019-02-19T05:35:28.637Z,86.90
2019-02-19T05:37:57.519Z,87.00
2019-02-19T05:40:27.900Z,87.20
2019-02-19T05:42:56.698Z,87.70
2019-02-19T05:45:26.400Z,88.00
2019-02-19T05:47:55.262Z,88.20
2019-02-19T05:50:24.030Z,88.40
2019-02-19T05:52:52.828Z,88.30
2019-02-19T05:55:21.596Z,89.00
2019-02-19T05:57:50.416Z,89.30
2019-02-19T06:00:19.189Z,89.50
2019-02-19T06:02:47.999Z,89.80
2019-02-19T06:05:16.779Z,89.90
2019-02-19T06:07:45.567Z,90.00
2019-02-19T06:10:14.333Z,90.00
2019-02-19T06:12:43.118Z,90.10
2019-02-19T06:15:12.267Z,90.10
2019-02-19T06:17:41.060Z,90.20
2019-02-19T06:20:09.831Z,90.30
2019-02-19T06:22:40.276Z,90.20
2019-02-19T06:25:09.365Z,90.30
2019-02-19T06:27:38.224Z,90.40
2019-02-19T06:30:10.126Z,90.40
2019-02-19T06:32:38.920Z,90.40
2019-02-19T06:35:08.453Z,90.50
2019-02-19T06:37:37.249Z,90.60
2019-02-19T06:40:14.999Z,90.70
2019-02-19T06:42:43.806Z,90.70
2019-02-19T06:45:15.358Z,90.60
2019-02-19T06:47:44.162Z,90.60
2019-02-19T06:50:12.919Z,90.60
2019-02-19T06:52:41.698Z,90.60
2019-02-19T06:55:10.522Z,90.90
2019-02-19T06:57:39.281Z,90.60
2019-02-19T07:00:10.695Z,90.70
2019-02-19T07:02:41.153Z,90.60
2019-02-19T07:05:11.595Z,90.60
2019-02-19T07:07:40.368Z,90.60
2019-02-19T07:10:09.156Z,90.60
2019-02-19T07:12:37.911Z,90.60
2019-02-19T07:15:08.351Z,90.50
2019-02-19T07:17:37.182Z,90.50
2019-02-19T07:20:09.120Z,90.50
2019-02-19T07:22:37.970Z,90.50
2019-02-19T07:25:13.996Z,90.50
2019-02-19T07:27:42.763Z,90.50
2019-02-19T07:30:12.197Z,90.40
2019-02-19T07:32:40.973Z,90.30
2019-02-19T07:35:12.501Z,90.20
2019-02-19T07:37:42.304Z,90.20
2019-02-19T07:40:12.564Z,90.10
2019-02-19T07:42:41.366Z,90.00
2019-02-19T07:45:15.504Z,90.00
2019-02-19T07:47:45.356Z,90.00
2019-02-19T07:50:14.355Z,90.00
2019-02-19T07:52:44.815Z,90.10
2019-02-19T07:55:13.685Z,90.10
2019-02-19T07:57:42.937Z,90.10
2019-02-19T08:00:13.445Z,90.10
2019-02-19T08:02:43.654Z,90.20
2019-02-19T08:05:12.670Z,90.10
2019-02-19T08:07:42.873Z,90.00
2019-02-19T08:10:12.248Z,90.10
2019-02-19T08:12:42.728Z,89.90
2019-02-19T08:15:12.048Z,89.50
2019-02-19T08:17:42.268Z,89.40
2019-02-19T08:20:15.861Z,89.30
2019-02-19T08:22:41.600Z,89.20
2019-02-19T08:25:10.402Z,89.00
2019-02-19T08:27:39.317Z,89.00
2019-02-19T08:30:11.106Z,88.60
2019-02-19T08:32:39.845Z,88.20
2019-02-19T08:35:08.629Z,87.80
2019-02-19T08:37:37.400Z,88.00
2019-02-19T08:40:08.817Z,87.70
2019-02-19T08:42:37.646Z,87.30
2019-02-19T08:45:08.508Z,87.10
2019-02-19T08:47:42.723Z,87.20
2019-02-19T08:50:08.303Z,86.50
2019-02-19T08:52:37.238Z,86.70
2019-02-19T08:55:06.781Z,87.10
2019-02-19T08:57:35.576Z,87.30
2019-02-19T09:00:07.591Z,86.80
2019-02-19T09:02:36.474Z,87.10
2019-02-19T09:05:06.932Z,87.20
2019-02-19T09:07:35.724Z,86.70
2019-02-19T09:10:07.791Z,86.70
2019-02-19T09:12:36.582Z,86.30
2019-02-19T09:15:11.222Z,86.40
2019-02-19T09:17:40.433Z,85.80
2019-02-19T09:20:10.035Z,85.80
2019-02-19T09:22:38.835Z,85.70
2019-02-19T09:25:08.633Z,85.40
2019-02-19T09:27:38.535Z,84.70
2019-02-19T09:30:12.189Z,84.20
2019-02-19T09:32:40.990Z,82.80
2019-02-19T09:35:09.946Z,82.80
2019-02-19T09:37:38.811Z,83.00
2019-02-19T09:40:09.538Z,81.80
2019-02-19T09:42:38.353Z,81.70
2019-02-19T09:45:09.700Z,80.30
2019-02-19T09:47:38.498Z,77.60
2019-02-19T09:50:09.540Z,77.40
2019-02-19T09:52:38.315Z,77.70
2019-02-19T09:55:07.675Z,75.00
2019-02-19T09:57:36.524Z,74.60
2019-02-19T10:00:11.411Z,73.90
2019-02-19T10:02:40.167Z,74.20
2019-02-19T10:05:11.117Z,74.40
2019-02-19T10:07:39.892Z,73.90
2019-02-19T10:10:11.692Z,71.40
2019-02-19T10:12:40.476Z,70.40
2019-02-19T10:15:11.925Z,71.50
2019-02-19T10:17:40.702Z,73.30
2019-02-19T10:20:10.427Z,73.20
2019-02-19T10:22:39.189Z,73.20
2019-02-19T10:25:13.150Z,74.40
2019-02-19T10:27:41.913Z,74.80
2019-02-19T10:30:13.759Z,71.90
2019-02-19T10:32:42.546Z,69.20
2019-02-19T10:35:11.881Z,69.60
2019-02-19T10:37:40.664Z,69.10
2019-02-19T10:40:20.397Z,70.50
2019-02-19T10:42:49.275Z,71.50
2019-02-19T10:45:25.208Z,71.80
2019-02-19T10:47:54.082Z,72.40
2019-02-19T10:50:23.222Z,72.80
2019-02-19T10:52:52.810Z,73.20
2019-02-19T10:55:21.720Z,72.20
2019-02-19T10:57:51.138Z,72.30
2019-02-19T11:00:23.286Z,71.10
2019-02-19T11:02:52.222Z,70.70
2019-02-19T11:05:21.718Z,70.60
2019-02-19T11:07:50.656Z,69.00
2019-02-19T11:10:19.495Z,67.80
2019-02-19T11:12:49.876Z,66.90
2019-02-19T11:15:18.656Z,67.80
2019-02-19T11:17:47.519Z,67.90
2019-02-19T11:20:21.769Z,68.70
2019-02-19T11:22:52.342Z,68.50
2019-02-19T11:25:21.274Z,67.90
2019-02-19T11:27:51.581Z,65.20
2019-02-19T11:30:21.344Z,64.00
2019-02-19T11:32:51.362Z,63.20
2019-02-19T11:35:21.814Z,62.50
2019-02-19T11:37:50.812Z,60.60
2019-02-19T11:40:21.466Z,57.90
2019-02-19T11:42:50.302Z,57.90
2019-02-19T11:45:19.503Z,58.70
2019-02-19T11:47:49.001Z,61.70
2019-02-19T11:50:17.932Z,63.20
2019-02-19T11:52:46.903Z,64.00
2019-02-19T11:55:18.951Z,64.20
2019-02-19T11:57:47.810Z,64.60
2019-02-19T12:00:18.417Z,65.50
2019-02-19T12:02:47.271Z,65.30
2019-02-19T12:05:16.716Z,66.10
2019-02-19T12:07:45.668Z,66.40
2019-02-19T12:10:14.611Z,65.70
2019-02-19T12:12:44.494Z,64.60
2019-02-19T12:15:13.805Z,63.10
2019-02-19T12:17:42.600Z,61.00
2019-02-19T12:20:13.163Z,61.50
2019-02-19T12:22:41.975Z,62.10
2019-02-19T12:25:11.176Z,62.70
2019-02-19T12:27:39.962Z,63.60
2019-02-19T12:30:14.128Z,64.60
2019-02-19T12:32:42.920Z,63.00
2019-02-19T12:35:11.907Z,61.60
2019-02-19T12:37:40.683Z,60.70
2019-02-19T12:40:11.369Z,58.90
2019-02-19T12:42:40.152Z,58.40
2019-02-19T12:45:13.101Z,54.90
2019-02-19T12:47:43.234Z,53.20
2019-02-19T12:50:16.559Z,52.70
2019-02-19T12:52:45.401Z,54.00
2019-02-19T12:55:14.280Z,55.20
2019-02-19T12:57:43.170Z,56.80
2019-02-19T13:00:14.588Z,58.90
2019-02-19T13:02:44.167Z,60.60
2019-02-19T13:05:15.410Z,60.90
2019-02-19T13:07:44.286Z,60.90
2019-02-19T13:10:13.140Z,62.60
2019-02-19T13:12:42.321Z,62.20
2019-02-19T13:15:21.807Z,62.60
2019-02-19T13:17:50.586Z,63.00
2019-02-19T13:20:21.034Z,62.90
2019-02-19T13:22:51.409Z,63.00
2019-02-19T13:25:20.184Z,62.70
2019-02-19T13:27:49.019Z,62.70
2019-02-19T13:30:22.575Z,62.70
2019-02-19T13:32:51.596Z,62.90
2019-02-19T13:35:20.428Z,62.80
2019-02-19T13:37:50.912Z,61.80
2019-02-19T13:40:21.229Z,60.20
2019-02-19T13:42:50.024Z,59.60
2019-02-19T13:45:18.951Z,59.10
2019-02-19T13:47:49.390Z,58.90
2019-02-19T13:50:27.596Z,59.30
2019-02-19T13:53:13.209Z,60.30
2019-02-19T13:55:43.671Z,61.00
2019-02-19T13:58:12.475Z,61.80
2019-02-19T14:00:43.009Z,61.90
2019-02-19T14:03:11.855Z,62.20
2019-02-19T14:05:40.651Z,62.00
2019-02-19T14:08:14.689Z,61.20
2019-02-19T14:10:40.108Z,61.30
2019-02-19T14:13:10.961Z,61.30
2019-02-19T14:15:56.288Z,61.20
2019-02-19T14:18:26.810Z,61.50
2019-02-19T14:21:13.236Z,61.30
2019-02-19T14:24:00.243Z,61.20
2019-02-19T14:26:47.099Z,61.30
2019-02-19T14:29:34.071Z,61.70
2019-02-19T14:32:20.923Z,61.90
2019-02-19T14:35:09.888Z,62.00
2019-02-19T14:37:43.015Z,61.90
2019-02-19T14:40:28.447Z,62.60
2019-02-19T14:43:04.648Z,62.80
2019-02-19T14:45:50.384Z,62.70
2019-02-19T14:48:35.795Z,63.20
2019-02-19T14:51:18.429Z,62.70
2019-02-19T14:54:06.933Z,62.50
2019-02-19T14:56:52.363Z,63.00
2019-02-19T14:59:22.772Z,63.20
2019-02-19T15:02:09.237Z,62.90
2019-02-19T15:04:42.628Z,63.30
2019-02-19T15:07:24.572Z,63.30
2019-02-19T15:10:04.116Z,63.20
2019-02-19T15:12:46.296Z,63.60
2019-02-19T15:15:29.047Z,63.70
2019-02-19T15:18:02.141Z,63.60
2019-02-19T15:20:32.560Z,64.10
2019-02-19T15:23:02.980Z,64.20
2019-02-19T15:25:33.461Z,64.00
2019-02-19T15:28:15.615Z,64.10
2019-02-19T15:30:58.059Z,64.20
2019-02-19T15:33:28.444Z,64.50
2019-02-19T15:35:58.840Z,64.70
2019-02-19T15:38:34.991Z,65.10
2019-02-19T15:41:21.590Z,65.60
2019-02-19T15:43:51.993Z,65.90
2019-02-19T15:46:37.379Z,66.00
2019-02-19T15:49:16.685Z,65.90
2019-02-19T15:51:53.229Z,66.20
2019-02-19T15:54:32.669Z,66.60
2019-02-19T15:57:05.823Z,65.70
2019-02-19T15:59:36.238Z,65.80
2019-02-19T16:02:09.896Z,65.50
2019-02-19T16:04:58.676Z,65.60
2019-02-19T16:07:29.096Z,65.10
2019-02-19T16:10:02.438Z,65.60
2019-02-19T16:12:35.671Z,65.90
2019-02-19T16:15:11.470Z,65.90
2019-02-19T16:17:58.201Z,65.70
2019-02-19T16:20:28.584Z,65.50
2019-02-19T16:23:15.003Z,65.90
2019-02-19T16:25:48.374Z,65.80
2019-02-19T16:28:34.826Z,66.10
2019-02-19T16:31:05.255Z,66.20
2019-02-19T16:33:52.002Z,66.50
2019-02-19T16:36:22.403Z,66.70
2019-02-19T16:39:07.910Z,66.90
2019-02-19T16:41:41.226Z,67.20
2019-02-19T16:44:17.326Z,67.40
2019-02-19T16:46:47.735Z,67.60
2019-02-19T16:49:34.531Z,67.80
2019-02-19T16:52:13.938Z,68.60
2019-02-19T16:54:47.473Z,68.10
2019-02-19T16:57:20.755Z,68.20
2019-02-19T17:00:03.179Z,68.60
2019-02-19T17:02:42.511Z,68.70
2019-02-19T17:05:28.185Z,68.60
2019-02-19T17:07:58.592Z,68.60
2019-02-19T17:10:31.834Z,68.70
2019-02-19T17:13:07.818Z,69.40
2019-02-19T17:15:54.412Z,68.50
2019-02-19T17:18:31.083Z,68.40
2019-02-19T17:21:01.508Z,68.70
2019-02-19T17:23:43.916Z,68.90
2019-02-19T17:26:14.414Z,69.10
2019-02-19T17:29:01.013Z,69.00
2019-02-19T17:31:31.441Z,69.10
2019-02-19T17:34:05.021Z,69.10
2019-02-19T17:36:50.736Z,69.20
2019-02-19T17:39:30.041Z,69.40
2019-02-19T17:42:00.528Z,69.70
2019-02-19T17:44:49.067Z,69.60
2019-02-19T17:47:19.581Z,70.00
2019-02-19T17:49:58.781Z,70.60
2019-02-19T17:52:38.272Z,70.40
2019-02-19T17:55:08.655Z,70.40
2019-02-19T17:57:42.127Z,70.50
2019-02-19T18:00:13.421Z,70.50
2019-02-19T18:02:46.918Z,70.70
2019-02-19T18:05:29.650Z,70.50
2019-02-19T18:08:16.583Z,70.50
2019-02-19T18:10:59.052Z,70.50
2019-02-19T18:13:45.376Z,70.60
2019-02-19T18:16:27.883Z,70.50
2019-02-19T18:18:56.728Z,70.60
2019-02-19T18:21:25.476Z,70.90
2019-02-19T18:23:54.381Z,71.20
2019-02-19T18:26:23.140Z,71.40
2019-02-19T18:28:51.932Z,71.60
2019-02-19T18:31:20.704Z,72.10
2019-02-19T18:33:49.475Z,72.10
2019-02-19T18:36:18.252Z,72.10
2019-02-19T18:38:47.042Z,72.10
2019-02-19T18:41:15.862Z,72.40
2019-02-19T18:43:44.647Z,72.30
2019-02-19T18:46:13.398Z,72.30
2019-02-19T18:48:42.237Z,72.50
2019-02-19T18:51:11.029Z,72.60
2019-02-19T18:53:39.833Z,72.90
2019-02-19T18:56:08.669Z,72.80
2019-02-19T18:58:37.529Z,72.50
2019-02-19T19:01:06.296Z,72.90
2019-02-19T19:03:35.146Z,72.50
2019-02-19T19:06:03.971Z,72.30
2019-02-19T19:08:32.727Z,72.20
2019-02-19T19:11:01.691Z,71.90
2019-02-19T19:13:30.453Z,71.70
2019-02-19T19:15:59.275Z,71.90
2019-02-19T19:18:28.044Z,72.00
2019-02-19T19:20:56.824Z,72.20
2019-02-19T19:23:25.613Z,72.10
2019-02-19T19:25:54.424Z,72.20
2019-02-19T19:28:23.200Z,72.20
2019-02-19T19:30:52.044Z,72.20
2019-02-19T19:33:20.854Z,72.20
2019-02-19T19:35:49.632Z,72.40
2019-02-19T19:38:18.433Z,72.10
2019-02-19T19:40:47.300Z,71.80
2019-02-19T19:43:16.051Z,71.80
2019-02-19T19:45:44.866Z,71.70
2019-02-19T19:48:13.690Z,71.90
2019-02-19T19:50:42.574Z,72.00
2019-02-19T19:53:11.390Z,71.80
2019-02-19T19:55:40.205Z,71.60
2019-02-19T19:58:08.951Z,72.00
2019-02-19T20:00:37.762Z,72.20
2019-02-19T20:03:06.524Z,72.50
2019-02-19T20:05:35.290Z,72.70
2019-02-19T20:08:04.100Z,72.90
2019-02-19T20:10:32.941Z,73.20
2019-02-19T20:13:01.986Z,73.40
2019-02-19T20:15:30.754Z,73.60
2019-02-19T20:17:59.533Z,73.80
2019-02-19T20:20:28.313Z,74.10
2019-02-19T20:22:57.119Z,74.50
2019-02-19T20:25:25.890Z,74.70
2019-02-19T20:27:54.679Z,74.80
2019-02-19T20:30:23.442Z,74.90
2019-02-19T20:32:52.304Z,75.20
2019-02-19T20:35:21.080Z,75.40
2019-02-19T20:37:54.074Z,75.80
2019-02-19T20:40:20.406Z,76.10
2019-02-19T20:42:49.226Z,76.40
2019-02-19T20:45:17.998Z,76.70
2019-02-19T20:47:48.321Z,77.10
2019-02-19T20:50:17.187Z,77.50
2019-02-19T20:52:45.994Z,78.00
2019-02-19T20:55:14.761Z,78.40
2019-02-19T20:57:43.539Z,78.50
2019-02-19T21:00:15.616Z,78.90
2019-02-19T21:02:44.472Z,79.20
2019-02-19T21:05:13.271Z,79.40
2019-02-19T21:07:42.106Z,79.70
2019-02-19T21:10:13.624Z,80.00
2019-02-19T21:12:42.467Z,80.50
2019-02-19T21:15:11.275Z,80.70
2019-02-19T21:17:40.172Z,80.90
2019-02-19T21:20:10.710Z,81.00
2019-02-19T21:22:39.539Z,81.30
2019-02-19T21:25:09.436Z,81.50
2019-02-19T21:27:38.258Z,81.80
2019-02-19T21:30:12.272Z,82.10
2019-02-19T21:32:41.040Z,82.30
2019-02-19T21:35:10.123Z,82.60
2019-02-19T21:37:38.945Z,82.60
2019-02-19T21:40:10.543Z,82.60
2019-02-19T21:42:39.346Z,82.50
2019-02-19T21:45:10.098Z,82.60
2019-02-19T21:47:38.939Z,82.50
2019-02-19T21:50:15.587Z,82.60
2019-02-19T21:52:44.650Z,82.70
2019-02-19T21:55:13.513Z,82.80
2019-02-19T21:57:45.329Z,82.70
2019-02-19T22:00:18.684Z,82.60
2019-02-19T22:02:47.486Z,82.40
2019-02-19T22:05:16.323Z,82.30
2019-02-19T22:07:45.133Z,82.10
2019-02-19T22:10:14.538Z,81.90
2019-02-19T22:12:43.337Z,81.90
2019-02-19T22:15:13.418Z,82.00
2019-02-19T22:17:42.400Z,82.30
2019-02-19T22:20:24.439Z,82.60
2019-02-19T22:22:53.230Z,82.90
2019-02-19T22:25:24.701Z,82.90
2019-02-19T22:27:52.565Z,82.90
2019-02-19T22:30:21.343Z,83.00
2019-02-19T22:32:50.119Z,83.10
2019-02-19T22:35:18.928Z,83.10
2019-02-19T22:37:47.735Z,83.00
2019-02-19T22:40:16.508Z,82.80
2019-02-19T22:42:45.283Z,82.60
2019-02-19T22:45:14.049Z,82.30
2019-02-19T22:47:42.905Z,82.20
2019-02-19T22:50:11.765Z,82.30
2019-02-19T22:52:40.557Z,82.50
2019-02-19T22:55:26.470Z,82.70
2019-02-19T22:57:55.286Z,82.90
2019-02-19T23:00:34.400Z,82.40
2019-02-19T23:03:03.254Z,83.00
2019-02-19T23:05:31.983Z,83.10
2019-02-19T23:08:00.761Z,83.40
2019-02-19T23:10:29.595Z,83.40
2019-02-19T23:12:58.382Z,83.40
2019-02-19T23:15:27.131Z,83.20
2019-02-19T23:17:55.958Z,83.10
2019-02-19T23:20:24.712Z,83.00
2019-02-19T23:22:53.515Z,82.70
2019-02-19T23:25:22.274Z,82.30
2019-02-19T23:27:51.063Z,82.20
2019-02-19T23:30:19.859Z,82.00
2019-02-19T23:32:48.611Z,82.00
2019-02-19T23:35:19.031Z,82.20
2019-02-19T23:37:47.790Z,82.00
2019-02-19T23:40:16.591Z,82.20
2019-02-19T23:42:45.348Z,82.10
2019-02-19T23:45:14.135Z,82.80
2019-02-19T23:47:42.908Z,82.10
2019-02-19T23:50:11.740Z,81.90
2019-02-19T23:52:40.494Z,81.90
2019-02-19T23:55:09.269Z,82.00
2019-02-19T23:57:38.020Z,82.00
